Time;durP1;ratioP1;P1;durP2;ratioP2;P2;SDS_P1;SDS_P2;PMS_P1;PMS_P2;Temp;Humidity;BMP_temperature;BMP_pressure;BME280_temperature;BME280_humidity;BME280_pressure;Samples;Min_cycle;Max_cycle;Signal;HPM_P1;HPM_P2
2022/06/29 00:00:49;;;;;;;7.10;3.00;;;17.10;99.90;;;;;;5139299;27;20035;-76
2022/06/29 00:03:15;;;;;;;7.30;2.90;;;17.10;99.90;;;;;;5157693;27;20039;-75
2022/06/29 00:05:41;;;;;;;6.53;2.80;;;17.10;99.90;;;;;;5157420;27;20099;-77
2022/06/29 00:08:07;;;;;;;6.28;2.70;;;17.00;99.90;;;;;;5157567;27;20171;-77
2022/06/29 00:10:33;;;;;;;7.23;2.97;;;17.10;99.90;;;;;;5157423;27;20125;-76
2022/06/29 00:12:59;;;;;;;6.00;2.72;;;17.10;99.90;;;;;;5157442;27;20066;-77
2022/06/29 00:15:24;;;;;;;4.30;2.07;;;17.10;99.90;;;;;;5157383;27;20386;-77
2022/06/29 00:17:50;;;;;;;4.73;2.63;;;17.00;99.90;;;;;;5157594;27;20035;-77
2022/06/29 00:20:16;;;;;;;5.27;2.90;;;17.00;99.90;;;;;;5157297;27;20492;-75
2022/06/29 00:22:44;;;;;;;5.43;2.85;;;17.00;99.90;;;;;;5157093;27;20030;-77
2022/06/29 00:25:11;;;;;;;6.20;3.10;;;16.90;99.90;;;;;;5157211;27;20050;-76
2022/06/29 00:27:37;;;;;;;5.10;2.90;;;16.90;99.90;;;;;;5157167;27;20039;-75
2022/06/29 00:30:04;;;;;;;6.05;2.85;;;16.80;99.90;;;;;;5157124;27;20119;-77
2022/06/29 00:32:30;;;;;;;7.93;3.03;;;16.80;99.90;;;;;;5157025;27;20047;-76
2022/06/29 00:34:57;;;;;;;7.15;3.35;;;16.80;99.90;;;;;;5157049;27;20077;-76
2022/06/29 00:37:23;;;;;;;;;;;16.70;99.90;;;;;;5157088;27;20382;-77
2022/06/29 00:39:48;;;;;;;6.03;3.30;;;16.70;99.90;;;;;;5156830;27;19926;-77
2022/06/29 00:42:14;;;;;;;6.60;3.30;;;16.70;99.90;;;;;;5156947;27;20039;-76
2022/06/29 00:44:39;;;;;;;7.10;3.60;;;16.70;99.90;;;;;;5156827;27;20443;-75
2022/06/29 00:47:06;;;;;;;8.63;3.50;;;16.60;99.90;;;;;;5156769;27;20043;-76
2022/06/29 00:49:34;;;;;;;6.88;3.42;;;16.60;99.90;;;;;;5156917;27;20069;-75
2022/06/29 00:52:07;;;;;;;5.07;3.28;;;16.60;99.90;;;;;;5155862;27;20046;-76
2022/06/29 00:54:39;;;;;;;6.88;3.10;;;16.60;99.90;;;;;;5156533;27;20046;-77
2022/06/29 00:57:08;;;;;;;9.32;3.67;;;16.50;99.90;;;;;;5156431;27;20055;-76
2022/06/29 00:59:41;;;;;;;5.88;2.95;;;16.40;99.90;;;;;;5156551;27;20131;-77
2022/06/29 01:02:07;;;;;;;5.55;3.47;;;16.40;99.90;;;;;;5156541;27;20051;-75
2022/06/29 01:04:33;;;;;;;9.13;3.67;;;16.40;99.90;;;;;;5156386;27;20038;-74
2022/06/29 01:06:58;;;;;;;6.00;3.17;;;16.40;99.90;;;;;;5156389;27;20478;-76
2022/06/29 01:09:24;;;;;;;5.03;3.20;;;16.30;99.90;;;;;;5156359;27;20099;-75
2022/06/29 01:11:50;;;;;;;7.10;3.20;;;16.30;99.90;;;;;;5156670;27;20054;-76
2022/06/29 01:14:16;;;;;;;6.57;3.50;;;16.30;99.90;;;;;;5156224;27;20057;-76
2022/06/29 01:16:41;;;;;;;7.20;3.10;;;16.30;99.90;;;;;;5156126;27;20039;-75
2022/06/29 01:19:07;;;;;;;7.03;3.50;;;16.30;99.90;;;;;;5156495;27;20460;-77
2022/06/29 01:21:35;;;;;;;6.30;2.70;;;16.20;99.90;;;;;;5156033;27;20085;-75
2022/06/29 01:24:02;;;;;;;3.50;2.45;;;16.20;99.90;;;;;;5156006;27;20050;-77
2022/06/29 01:26:27;;;;;;;5.90;2.67;;;16.30;99.90;;;;;;5156008;27;20043;-76
2022/06/29 01:28:53;;;;;;;5.03;2.20;;;16.30;99.90;;;;;;5155951;27;20134;-75
2022/06/29 01:31:19;;;;;;;3.87;2.33;;;16.30;99.90;;;;;;5155773;27;20035;-77
2022/06/29 01:33:46;;;;;;;5.13;2.33;;;16.30;99.90;;;;;;5155514;27;20501;-77
2022/06/29 01:36:14;;;;;;;5.32;2.20;;;16.20;99.90;;;;;;5155634;27;20035;-74
2022/06/29 01:38:40;;;;;;;4.47;2.22;;;16.30;99.90;;;;;;5155799;27;20042;-75
2022/06/29 01:41:07;;;;;;;2.93;2.10;;;16.20;99.90;;;;;;5155774;27;20363;-76
2022/06/29 01:43:34;;;;;;;4.03;2.30;;;16.20;99.90;;;;;;5156053;27;20473;-75
2022/06/29 01:46:00;;;;;;;4.53;2.55;;;16.20;99.90;;;;;;5155713;27;20125;-76
2022/06/29 01:48:25;;;;;;;3.53;2.40;;;16.10;99.90;;;;;;5155853;27;20509;-76
2022/06/29 01:50:51;;;;;;;7.20;2.23;;;16.10;99.90;;;;;;5155513;27;20055;-76
2022/06/29 01:53:17;;;;;;;4.13;2.40;;;16.10;99.90;;;;;;5155582;27;20057;-76
2022/06/29 01:55:44;;;;;;;5.78;2.90;;;16.00;99.90;;;;;;5155592;27;20454;-75
2022/06/29 01:58:10;;;;;;;4.30;2.60;;;16.00;99.90;;;;;;5136963;27;20042;-75
2022/06/29 02:00:35;;;;;;;4.30;2.60;;;16.00;99.90;;;;;;5155530;27;20042;-76
2022/06/29 02:03:01;;;;;;;6.20;2.90;;;16.00;99.90;;;;;;5155306;27;20043;-75
2022/06/29 02:05:26;;;;;;;9.17;2.87;;;15.90;99.90;;;;;;5155401;27;20386;-77
2022/06/29 02:07:52;;;;;;;5.00;2.93;;;15.90;99.90;;;;;;5155896;27;20046;-75
2022/06/29 02:10:18;;;;;;;4.73;2.80;;;15.90;99.90;;;;;;5155408;27;20046;-76
2022/06/29 02:12:43;;;;;;;5.43;2.70;;;15.90;99.90;;;;;;5155408;27;20125;-76
2022/06/29 02:15:09;;;;;;;5.10;2.80;;;15.90;99.90;;;;;;5155624;27;20050;-76
2022/06/29 02:17:35;;;;;;;6.13;3.10;;;15.90;99.90;;;;;;5155285;27;20490;-76
2022/06/29 02:20:00;;;;;;;4.33;2.77;;;15.80;99.90;;;;;;5155335;27;20093;-77
2022/06/29 02:22:26;;;;;;;5.17;3.03;;;15.80;99.90;;;;;;5155254;27;20470;-75
2022/06/29 02:24:52;;;;;;;5.53;3.07;;;15.80;99.90;;;;;;5155889;27;20050;-75
2022/06/29 02:27:18;;;;;;;4.20;2.90;;;15.70;99.90;;;;;;5155249;27;20046;-75
2022/06/29 02:29:44;;;;;;;4.20;2.40;;;15.70;99.90;;;;;;5155272;27;20047;-76
2022/06/29 02:34:54;;;;;;;5.60;3.08;;;15.60;99.90;;;;;;5155143;27;20059;-77
2022/06/29 02:37:20;;;;;;;7.83;3.07;;;15.60;99.90;;;;;;5155340;27;20039;-76
2022/06/29 02:39:46;;;;;;;5.43;3.03;;;15.50;99.90;;;;;;5155145;27;20078;-76
2022/06/29 02:42:13;;;;;;;5.90;2.80;;;15.50;99.90;;;;;;5155140;27;20528;-75
2022/06/29 02:44:39;;;;;;;5.22;3.42;;;15.50;99.90;;;;;;5155068;27;20043;-76
2022/06/29 02:47:05;;;;;;;5.73;2.97;;;15.50;99.90;;;;;;5154996;27;20034;-77
2022/06/29 02:49:31;;;;;;;4.97;2.92;;;15.40;99.90;;;;;;5154963;27;20058;-76
2022/06/29 02:51:56;;;;;;;4.70;2.93;;;15.40;99.90;;;;;;5155014;27;20047;-77
2022/06/29 02:54:22;;;;;;;4.73;2.70;;;15.40;99.90;;;;;;5155146;27;20039;-76
2022/06/29 02:56:48;;;;;;;7.63;2.83;;;15.40;99.90;;;;;;5154900;27;20085;-76
2022/06/29 02:59:13;;;;;;;4.93;2.90;;;15.40;99.90;;;;;;5154946;27;20553;-76
2022/06/29 03:01:39;;;;;;;6.05;2.90;;;15.40;99.90;;;;;;5154659;27;20049;-77
2022/06/29 03:04:04;;;;;;;5.00;2.90;;;15.40;99.90;;;;;;5154863;27;20075;-77
2022/06/29 03:06:30;;;;;;;3.60;2.60;;;15.30;99.90;;;;;;5154491;27;20099;-76
2022/06/29 03:08:56;;;;;;;5.13;2.67;;;15.30;99.90;;;;;;5154669;27;20076;-76
2022/06/29 03:11:22;;;;;;;6.37;2.90;;;15.30;99.90;;;;;;5155061;27;20034;-76
2022/06/29 03:13:47;;;;;;;3.28;2.50;;;15.30;99.90;;;;;;5155556;27;20074;-77
2022/06/29 03:16:13;;;;;;;5.30;2.92;;;15.30;99.90;;;;;;5158692;27;20620;-76
2022/06/29 03:18:39;;;;;;;3.40;2.70;;;15.30;99.90;;;;;;5158358;27;20039;-77
2022/06/29 03:21:04;;;;;;;6.13;3.23;;;15.30;99.90;;;;;;5158194;27;20502;-76
2022/06/29 03:23:30;;;;;;;4.43;3.23;;;15.30;99.90;;;;;;5158441;27;20406;-77
2022/06/29 03:25:55;;;;;;;6.43;3.13;;;15.20;99.90;;;;;;5158399;27;20083;-76
2022/06/29 03:28:21;;;;;;;5.07;2.97;;;15.20;99.90;;;;;;5158370;27;20111;-76
2022/06/29 03:30:46;;;;;;;7.28;3.42;;;15.20;99.90;;;;;;5158282;27;20049;-76
2022/06/29 03:33:12;;;;;;;4.93;3.50;;;15.20;99.90;;;;;;5140036;27;20039;-77
2022/06/29 03:35:38;;;;;;;4.27;3.30;;;15.20;99.90;;;;;;5157850;27;20038;-76
2022/06/29 03:38:03;;;;;;;5.03;3.70;;;15.30;99.90;;;;;;5157995;27;20474;-77
2022/06/29 03:40:29;;;;;;;5.53;3.50;;;15.20;99.90;;;;;;5158217;27;20114;-76
2022/06/29 03:42:55;;;;;;;5.50;3.42;;;15.30;99.90;;;;;;5157938;27;20045;-76
2022/06/29 03:45:22;;;;;;;5.35;3.17;;;15.20;99.90;;;;;;5139823;27;20431;-77
2022/06/29 03:47:48;;;;;;;5.85;3.50;;;15.20;99.90;;;;;;5158003;27;20413;-75
2022/06/29 03:50:14;;;;;;;6.20;3.65;;;15.30;99.90;;;;;;5157792;27;20069;-75
2022/06/29 03:52:40;;;;;;;6.40;4.00;;;15.30;99.90;;;;;;5157879;27;20044;-75
2022/06/29 03:55:06;;;;;;;5.83;3.53;;;15.30;99.90;;;;;;5157802;27;20486;-77
2022/06/29 03:57:32;;;;;;;5.75;3.83;;;15.30;99.90;;;;;;5157949;27;20079;-77
2022/06/29 03:59:58;;;;;;;8.43;4.03;;;15.40;99.90;;;;;;5157943;27;20091;-75
2022/06/29 04:02:25;;;;;;;5.38;3.90;;;15.40;99.90;;;;;;5157657;27;20280;-76
2022/06/29 04:04:51;;;;;;;8.13;4.35;;;15.40;99.90;;;;;;5157618;27;20038;-76
2022/06/29 04:07:16;;;;;;;4.95;3.85;;;15.40;99.90;;;;;;5157603;27;20051;-75
2022/06/29 04:09:42;;;;;;;5.22;3.60;;;15.50;99.90;;;;;;5157607;27;20356;-76
2022/06/29 04:12:08;;;;;;;4.80;3.70;;;15.50;99.90;;;;;;5157487;27;20438;-77
2022/06/29 04:14:34;;;;;;;5.60;3.67;;;15.50;99.90;;;;;;5157464;27;20050;-76
2022/06/29 04:16:59;;;;;;;7.70;4.10;;;15.60;99.90;;;;;;5157261;27;20039;-75
2022/06/29 04:19:25;;;;;;;5.60;3.75;;;15.60;99.90;;;;;;5157255;27;20099;-77
2022/06/29 04:21:51;;;;;;;8.85;4.13;;;15.60;99.90;;;;;;5157293;27;20042;-75
2022/06/29 04:24:18;;;;;;;6.30;4.03;;;15.60;99.90;;;;;;5156961;27;20510;-76
2022/06/29 04:26:44;;;;;;;5.10;3.70;;;15.70;99.90;;;;;;5157203;27;20121;-77
2022/06/29 04:29:10;;;;;;;5.13;3.13;;;15.70;99.90;;;;;;5157009;27;20457;-77
2022/06/29 04:31:36;;;;;;;6.97;3.95;;;15.70;99.90;;;;;;5157082;27;20129;-77
2022/06/29 04:34:03;;;;;;;5.77;4.00;;;15.70;99.90;;;;;;5156803;27;20046;-78
2022/06/29 04:36:29;;;;;;;7.30;4.07;;;15.80;99.90;;;;;;5156883;27;20292;-77
2022/06/29 04:38:55;;;;;;;5.97;4.07;;;15.70;99.90;;;;;;5156932;27;20047;-76
2022/06/29 04:41:22;;;;;;;4.70;4.23;;;15.70;99.90;;;;;;5156928;27;20043;-78
2022/06/29 04:43:48;;;;;;;5.63;3.60;;;15.90;99.90;;;;;;5156957;27;20121;-77
2022/06/29 04:46:19;;;;;;;5.90;4.10;;;15.70;99.90;;;;;;5156747;27;20050;-75
2022/06/29 04:48:58;;;;;;;6.13;4.07;;;15.70;99.90;;;;;;5156715;27;20039;-77
2022/06/29 04:51:26;;;;;;;5.57;4.47;;;15.70;99.90;;;;;;5156714;27;20053;-76
2022/06/29 04:53:56;;;;;;;7.55;4.18;;;15.70;99.90;;;;;;5156607;27;20046;-76
2022/06/29 04:56:23;;;;;;;4.53;4.13;;;15.70;99.90;;;;;;5156512;27;20069;-76
2022/06/29 04:58:51;;;;;;;7.05;4.50;;;15.80;99.90;;;;;;5156646;27;20051;-76
2022/06/29 05:01:18;;;;;;;8.02;4.38;;;15.70;99.90;;;;;;5156389;27;20034;-74
2022/06/29 05:03:44;;;;;;;7.53;4.15;;;15.70;99.90;;;;;;5156708;27;20047;-76
2022/06/29 05:06:09;;;;;;;11.80;4.23;;;15.80;99.90;;;;;;5156318;27;20478;-77
2022/06/29 05:08:35;;;;;;;6.70;4.32;;;15.80;99.90;;;;;;5156621;27;20283;-76
2022/06/29 05:11:00;;;;;;;5.35;3.83;;;15.80;99.90;;;;;;5156620;27;20537;-76
2022/06/29 05:13:26;;;;;;;6.70;5.03;;;15.80;99.90;;;;;;5156268;27;20515;-77
2022/06/29 05:15:52;;;;;;;8.45;4.22;;;15.80;99.90;;;;;;5156190;27;20129;-77
2022/06/29 05:18:18;;;;;;;8.67;4.37;;;15.80;99.90;;;;;;5137588;27;20042;-84
2022/06/29 05:20:43;;;;;;;6.40;4.20;;;15.90;99.90;;;;;;5138382;27;20466;-85
2022/06/29 05:23:10;;;;;;;7.07;4.40;;;16.00;99.90;;;;;;5137645;27;20038;-82
2022/06/29 05:25:36;;;;;;;;;;;16.10;99.90;;;;;;5156597;27;20050;-76
2022/06/29 05:28:01;;;;;;;9.73;4.38;;;16.30;99.90;;;;;;5156194;27;20373;-77
2022/06/29 05:30:27;;;;;;;6.37;4.27;;;16.40;99.90;;;;;;5137412;27;20046;-76
2022/06/29 05:32:53;;;;;;;6.33;4.13;;;16.70;99.90;;;;;;5155938;27;20034;-75
2022/06/29 05:35:19;;;;;;;6.37;4.00;;;17.00;99.90;;;;;;5155906;27;20509;-75
2022/06/29 05:37:44;;;;;;;5.60;4.00;;;17.20;99.90;;;;;;5155350;27;20050;-76
2022/06/29 05:40:10;;;;;;;6.13;3.83;;;17.50;99.90;;;;;;5155821;27;20043;-76
2022/06/29 05:42:36;;;;;;;5.03;4.00;;;17.80;99.90;;;;;;5155987;27;20470;-80
2022/06/29 05:45:02;;;;;;;5.70;3.60;;;18.00;99.90;;;;;;5137186;27;20046;-77
2022/06/29 05:47:28;;;;;;;5.88;3.75;;;18.20;99.90;;;;;;5156389;27;20030;-76
2022/06/29 05:49:57;;;;;;;6.53;3.90;;;18.50;99.90;;;;;;5156077;27;20509;-73
2022/06/29 05:52:23;;;;;;;4.57;3.47;;;18.80;99.90;;;;;;5155572;27;20054;-76
2022/06/29 05:54:48;;;;;;;4.57;3.80;;;19.00;99.90;;;;;;5155858;27;20103;-76
2022/06/29 05:57:14;;;;;;;4.87;3.80;;;19.10;99.90;;;;;;5155460;27;20299;-78
2022/06/29 05:59:40;;;;;;;5.53;3.53;;;19.30;99.90;;;;;;5155148;27;20051;-76
2022/06/29 06:02:06;;;;;;;5.50;3.60;;;19.50;99.90;;;;;;5155514;27;20043;-77
2022/06/29 06:04:31;;;;;;;5.63;3.50;;;19.70;99.90;;;;;;5155500;27;20130;-76
2022/06/29 06:06:57;;;;;;;7.70;3.70;;;19.90;99.90;;;;;;5155297;27;20471;-77
2022/06/29 06:09:26;;;;;;;7.87;3.43;;;20.10;99.90;;;;;;5155487;27;20047;-77
2022/06/29 06:11:54;;;;;;;5.07;3.63;;;20.20;99.90;;;;;;5155475;27;20049;-79
2022/06/29 06:14:19;;;;;;;6.70;3.15;;;20.30;99.90;;;;;;5155254;27;20074;-76
2022/06/29 06:16:45;;;;;;;6.07;4.00;;;20.40;99.90;;;;;;5155202;27;20513;-85
2022/06/29 06:19:11;;;;;;;7.53;3.47;;;20.60;99.90;;;;;;5103555;27;20053;-84
2022/06/29 06:21:37;;;;;;;6.03;2.65;;;20.70;99.90;;;;;;5155235;27;20054;-81
2022/06/29 06:24:03;;;;;;;5.90;3.10;;;20.70;99.90;;;;;;5155517;27;20060;-80
2022/06/29 06:26:29;;;;;;;3.75;3.00;;;20.80;99.90;;;;;;5155093;27;20763;-80
2022/06/29 06:28:55;;;;;;;4.55;2.90;;;20.90;99.90;;;;;;5154941;27;20034;-83
2022/06/29 06:31:21;;;;;;;8.07;2.90;;;20.90;99.90;;;;;;5135076;27;20664;-78
2022/06/29 06:33:46;;;;;;;6.53;2.77;;;20.90;99.90;;;;;;5154007;27;20131;-80
2022/06/29 06:36:12;;;;;;;5.13;2.80;;;21.20;99.90;;;;;;5155049;27;20078;-79
2022/06/29 06:38:37;;;;;;;5.60;2.60;;;21.20;99.90;;;;;;5136854;27;20054;-79
2022/06/29 06:41:21;;;;;;;6.53;2.60;;;21.30;99.90;;;;;;5154600;27;20082;-80
2022/06/29 06:43:50;;;;;;;9.18;2.60;;;21.40;99.90;;;;;;5154883;27;20050;-79
2022/06/29 06:46:16;;;;;;;4.07;2.25;;;21.50;99.90;;;;;;5136716;27;20046;-80
2022/06/29 06:48:45;;;;;;;6.93;2.50;;;21.60;99.90;;;;;;5155634;27;20034;-80
2022/06/29 06:51:11;;;;;;;5.78;2.42;;;21.60;99.90;;;;;;5159071;27;20042;-80
2022/06/29 06:53:37;;;;;;;;;;;21.80;99.90;;;;;;5159570;27;20078;-80
2022/06/29 06:56:03;;;;;;;4.82;2.25;;;21.80;99.90;;;;;;5158888;27;20022;-80
2022/06/29 06:58:28;;;;;;;6.30;2.20;;;21.80;99.90;;;;;;5158815;27;20039;-79
2022/06/29 07:00:54;;;;;;;4.27;2.00;;;21.80;99.90;;;;;;5158878;27;20428;-79
2022/06/29 07:03:20;;;;;;;7.77;2.20;;;21.70;99.90;;;;;;5158898;27;20042;-80
2022/06/29 07:05:45;;;;;;;4.73;2.00;;;21.70;99.90;;;;;;5158326;27;20074;-80
2022/06/29 07:08:11;;;;;;;4.43;1.97;;;21.70;99.90;;;;;;5158971;27;20035;-80
2022/06/29 07:10:36;;;;;;;4.23;1.93;;;21.80;99.90;;;;;;5158706;27;20038;-80
2022/06/29 07:13:02;;;;;;;6.20;1.90;;;21.90;99.90;;;;;;5158299;27;20043;-80
2022/06/29 07:15:28;;;;;;;4.37;1.93;;;22.00;99.90;;;;;;5140615;27;20131;-79
2022/06/29 07:17:54;;;;;;;4.93;1.80;;;22.10;99.90;;;;;;5158863;27;20039;-79
2022/06/29 07:20:19;;;;;;;5.38;2.10;;;22.10;99.90;;;;;;5139963;27;20045;-80
2022/06/29 07:22:46;;;;;;;6.20;1.80;;;22.10;99.90;;;;;;5158537;27;20042;-80
2022/06/29 07:25:11;;;;;;;7.57;1.58;;;22.10;99.90;;;;;;5158387;27;20134;-80
2022/06/29 07:27:37;;;;;;;4.53;1.80;;;22.30;99.90;;;;;;5158352;27;20549;-80
2022/06/29 07:30:04;;;;;;;5.27;1.80;;;22.30;99.90;;;;;;5158809;27;20047;-80
2022/06/29 07:32:30;;;;;;;3.95;1.85;;;22.50;99.90;;;;;;5157961;27;20462;-80
2022/06/29 07:34:56;;;;;;;4.80;1.52;;;22.70;99.90;;;;;;5158570;27;20042;-80
2022/06/29 07:37:22;;;;;;;6.83;1.60;;;22.80;99.90;;;;;;5139528;27;20486;-79
2022/06/29 07:39:47;;;;;;;3.43;1.30;;;22.90;99.90;;;;;;5158045;27;20078;-80
2022/06/29 07:42:13;;;;;;;5.93;2.03;;;23.10;99.90;;;;;;5158053;27;20398;-79
2022/06/29 07:44:38;;;;;;;5.00;1.60;;;23.20;99.90;;;;;;5158027;27;20042;-79
2022/06/29 07:47:04;;;;;;;4.90;1.67;;;23.20;99.90;;;;;;5157975;27;20534;-80
2022/06/29 07:49:30;;;;;;;3.70;1.50;;;23.30;99.90;;;;;;5158007;27;20043;-80
2022/06/29 07:51:56;;;;;;;4.03;1.52;;;23.40;99.90;;;;;;5157960;27;20038;-79
2022/06/29 07:54:22;;;;;;;4.97;1.47;;;23.60;99.90;;;;;;5158024;27;20083;-79
2022/06/29 07:56:48;;;;;;;3.00;1.53;;;23.80;99.90;;;;;;5157675;27;20294;-80
2022/06/29 07:59:13;;;;;;;3.10;1.40;;;23.90;99.90;;;;;;5134769;27;20113;-77
2022/06/29 08:01:39;;;;;;;5.90;1.40;;;24.00;99.90;;;;;;5137518;27;20031;-79
2022/06/29 08:04:04;;;;;;;4.03;1.23;;;23.80;98.30;;;;;;5136550;27;20144;-78
2022/06/29 08:06:30;;;;;;;4.07;1.33;;;23.70;97.50;;;;;;5136740;27;20387;-79
2022/06/29 08:08:56;;;;;;;6.03;1.30;;;23.70;98.10;;;;;;5144258;27;20096;-79
2022/06/29 08:11:21;;;;;;;2.67;1.30;;;23.70;98.60;;;;;;5152393;27;20047;-79
2022/06/29 08:13:47;;;;;;;3.40;1.43;;;23.70;98.10;;;;;;5157268;27;20050;-79
2022/06/29 08:16:13;;;;;;;2.83;1.30;;;23.70;98.00;;;;;;5157604;27;20046;-79
2022/06/29 08:18:38;;;;;;;4.80;1.33;;;23.70;98.30;;;;;;5157035;27;20061;-79
2022/06/29 08:21:04;;;;;;;3.20;1.30;;;23.70;98.20;;;;;;5157237;27;20050;-78
2022/06/29 08:23:31;;;;;;;2.73;1.30;;;23.80;97.90;;;;;;5157081;27;20121;-78
2022/06/29 08:25:57;;;;;;;3.55;1.33;;;23.90;97.80;;;;;;5156786;27;20045;-78
2022/06/29 08:28:25;;;;;;;3.67;1.50;;;24.00;97.00;;;;;;5156956;27;20129;-78
2022/06/29 08:30:50;;;;;;;3.13;1.23;;;24.20;97.20;;;;;;5138522;27;20089;-79
2022/06/29 08:33:16;;;;;;;3.57;1.60;;;24.30;97.10;;;;;;5156624;27;20082;-79
2022/06/29 08:35:42;;;;;;;4.80;1.70;;;24.30;96.50;;;;;;5156853;27;20053;-79
2022/06/29 08:38:08;;;;;;;2.97;1.60;;;24.30;96.90;;;;;;5138319;27;20031;-78
2022/06/29 08:40:44;;;;;;;2.22;1.30;;;24.30;97.10;;;;;;5156812;27;20091;-79
2022/06/29 08:43:16;;;;;;;4.72;1.48;;;24.30;96.40;;;;;;5156743;27;20039;-79
2022/06/29 08:45:45;;;;;;;3.47;1.50;;;24.20;97.40;;;;;;5156696;27;20046;-79
2022/06/29 08:48:15;;;;;;;3.17;1.30;;;24.30;97.60;;;;;;5137989;27;20038;-79
2022/06/29 08:50:46;;;;;;;5.40;1.50;;;24.40;97.50;;;;;;5137837;27;20046;-81
2022/06/29 08:53:14;;;;;;;6.25;1.42;;;24.60;96.70;;;;;;5156301;27;20074;-79
2022/06/29 08:55:47;;;;;;;4.28;1.67;;;24.70;95.50;;;;;;5137776;27;20095;-76
2022/06/29 08:58:20;;;;;;;2.70;1.60;;;24.80;96.50;;;;;;5156411;27;20043;-75
2022/06/29 09:00:46;;;;;;;5.80;1.60;;;24.90;96.10;;;;;;5156316;27;20076;-78
2022/06/29 09:03:15;;;;;;;2.00;1.30;;;25.00;96.50;;;;;;5156008;27;20141;-77
2022/06/29 09:05:49;;;;;;;2.30;1.55;;;25.10;96.40;;;;;;5156017;27;20049;-78
2022/06/29 09:08:21;;;;;;;4.00;1.63;;;25.20;95.20;;;;;;5156278;27;20398;-78
2022/06/29 09:10:47;;;;;;;3.05;1.50;;;25.30;95.10;;;;;;5156401;27;20070;-78
2022/06/29 09:13:22;;;;;;;4.32;1.60;;;25.50;95.40;;;;;;5155277;27;20504;-79
2022/06/29 09:15:56;;;;;;;4.60;1.67;;;25.70;95.50;;;;;;5155847;27;20035;-80
2022/06/29 09:18:25;;;;;;;6.18;1.63;;;25.90;96.00;;;;;;5155844;27;20118;-79
2022/06/29 09:21:08;;;;;;;3.92;1.75;;;26.00;95.30;;;;;;5156036;27;20042;-79
2022/06/29 09:23:35;;;;;;;2.95;1.50;;;26.10;94.30;;;;;;5137831;27;20042;-79
2022/06/29 09:26:01;;;;;;;3.60;1.60;;;26.30;95.10;;;;;;5155981;27;20042;-80
2022/06/29 09:28:32;;;;;;;5.25;1.70;;;26.40;95.10;;;;;;5155857;27;20038;-78
2022/06/29 09:30:58;;;;;;;4.93;1.80;;;26.50;93.90;;;;;;5155565;27;20070;-78
2022/06/29 09:33:27;;;;;;;5.68;1.58;;;26.60;93.10;;;;;;5155831;27;20379;-79
2022/06/29 09:36:17;;;;;;;3.42;1.70;;;26.60;93.10;;;;;;5155720;27;20065;-79
2022/06/29 09:38:43;;;;;;;2.55;1.77;;;26.70;93.70;;;;;;5155539;27;20164;-78
2022/06/29 09:41:13;;;;;;;3.08;1.55;;;26.80;93.50;;;;;;5155536;27;20130;-78
2022/06/29 09:43:46;;;;;;;7.88;1.95;;;26.90;92.80;;;;;;5155518;27;20050;-78
2022/06/29 09:46:14;;;;;;;6.65;1.90;;;26.90;92.70;;;;;;5155166;27;20524;-78
2022/06/29 09:48:41;;;;;;;5.00;1.90;;;26.90;92.60;;;;;;5155441;27;20035;-77
2022/06/29 09:54:02;;;;;;;5.55;2.05;;;26.70;93.40;;;;;;5155386;27;20050;-77
2022/06/29 09:56:30;;;;;;;2.55;1.83;;;26.60;93.80;;;;;;5155446;27;20047;-79
2022/06/29 09:59:01;;;;;;;5.20;1.80;;;26.50;93.60;;;;;;5155747;27;20043;-79
2022/06/29 10:04:13;;;;;;;7.03;2.10;;;26.40;94.20;;;;;;5155082;27;20043;-78
2022/06/29 10:06:39;;;;;;;4.18;2.05;;;26.30;94.50;;;;;;5155057;27;20054;-79
2022/06/29 10:09:05;;;;;;;3.28;1.90;;;26.30;94.60;;;;;;5155292;27;20064;-79
2022/06/29 10:14:42;;;;;;;5.35;1.80;;;26.30;95.70;;;;;;5155220;27;20133;-80
2022/06/29 10:17:32;;;;;;;2.22;1.85;;;26.30;93.90;;;;;;5154799;27;20394;-80
2022/06/29 10:20:25;;;;;;;5.28;2.22;;;26.20;93.80;;;;;;5155465;27;20104;-80
2022/06/29 10:22:51;;;;;;;3.17;2.00;;;26.20;93.50;;;;;;5156239;27;20043;-80
2022/06/29 10:25:17;;;;;;;3.42;1.92;;;26.10;94.10;;;;;;5159289;27;20042;-80
2022/06/29 10:28:23;;;;;;;3.93;2.07;;;26.20;94.70;;;;;;5159401;27;20046;-79
2022/06/29 10:30:49;;;;;;;6.15;1.90;;;26.30;95.30;;;;;;5054982;28;20055;-79
2022/06/29 10:33:30;;;;;;;5.10;2.10;;;26.40;95.10;;;;;;5141108;27;20054;-80
2022/06/29 10:36:09;;;;;;;3.67;2.03;;;26.40;94.70;;;;;;5159247;27;20517;-79
2022/06/29 10:38:55;;;;;;;2.75;1.77;;;26.40;94.90;;;;;;5159370;27;20089;-80
2022/06/29 10:44:06;;;;;;;3.17;1.90;;;26.40;94.60;;;;;;5158750;27;20047;-79
2022/06/29 10:47:10;;;;;;;;;;;26.40;94.80;;;;;;5159338;27;20045;-78
2022/06/29 10:49:35;;;;;;;2.60;1.80;;;26.40;94.40;;;;;;5053423;28;19921;-79
2022/06/29 10:52:01;;;;;;;3.00;2.30;;;26.40;95.10;;;;;;5054564;28;20099;-77
2022/06/29 10:54:32;;;;;;;4.60;2.03;;;26.50;94.60;;;;;;5092657;27;20054;-77
2022/06/29 10:56:58;;;;;;;3.78;2.00;;;26.50;95.30;;;;;;5137221;27;20043;-78
2022/06/29 10:59:37;;;;;;;4.72;1.90;;;26.50;94.90;;;;;;5139479;27;20086;-80
2022/06/29 11:02:17;;;;;;;3.33;2.20;;;26.50;94.80;;;;;;5158680;27;20118;-79
2022/06/29 11:04:43;;;;;;;3.65;2.35;;;26.50;94.40;;;;;;5158427;27;20050;-79
2022/06/29 11:12:53;;;;;;;3.17;2.30;;;26.20;94.20;;;;;;5158351;27;20133;-77
2022/06/29 11:15:47;;;;;;;3.60;2.30;;;26.20;94.10;;;;;;5158234;27;20498;-78
2022/06/29 11:18:14;;;;;;;4.07;2.63;;;26.20;94.80;;;;;;5141584;27;20035;-78
2022/06/29 11:20:41;;;;;;;6.25;2.40;;;26.20;94.70;;;;;;5137596;27;20047;-77
2022/06/29 11:23:12;;;;;;;3.65;2.33;;;26.30;94.80;;;;;;5137314;27;20047;-75
2022/06/29 11:25:40;;;;;;;5.50;2.20;;;26.30;95.30;;;;;;5137541;27;20035;-76
2022/06/29 11:28:06;;;;;;;6.70;2.40;;;26.40;94.60;;;;;;5144223;27;20043;-78
2022/06/29 11:30:32;;;;;;;3.22;2.50;;;26.50;93.90;;;;;;5151096;27;20109;-77
2022/06/29 11:32:58;;;;;;;5.80;2.83;;;26.70;94.00;;;;;;5157800;27;20122;-75
2022/06/29 11:35:26;;;;;;;5.20;2.47;;;27.10;94.10;;;;;;5157423;27;20047;-77
2022/06/29 11:38:01;;;;;;;4.60;2.30;;;27.40;93.00;;;;;;5157732;27;20133;-79
2022/06/29 11:40:34;;;;;;;4.90;2.85;;;27.70;93.90;;;;;;5157975;27;20047;-76
2022/06/29 11:43:10;;;;;;;4.85;2.33;;;27.90;91.90;;;;;;5157949;27;20103;-77
2022/06/29 11:45:43;;;;;;;3.85;2.58;;;28.00;92.20;;;;;;5157950;27;20035;-77
2022/06/29 11:48:17;;;;;;;4.68;2.33;;;27.90;92.10;;;;;;5157955;27;20045;-78
2022/06/29 11:50:51;;;;;;;5.97;2.53;;;27.80;92.30;;;;;;5158278;27;20051;-77
2022/06/29 11:53:43;;;;;;;5.53;2.80;;;27.60;91.90;;;;;;5157758;27;20397;-77
2022/06/29 11:56:22;;;;;;;5.25;2.80;;;27.50;91.70;;;;;;5157482;27;20050;-77
2022/06/29 11:58:52;;;;;;;5.03;2.22;;;27.30;92.70;;;;;;5157445;27;20042;-77
2022/06/29 12:01:21;;;;;;;3.10;2.28;;;27.30;93.60;;;;;;5157661;27;20050;-78
2022/06/29 12:03:52;;;;;;;3.08;2.20;;;27.30;93.00;;;;;;5157398;27;20490;-78
2022/06/29 12:06:19;;;;;;;5.65;2.55;;;27.30;92.90;;;;;;5157423;27;20051;-77
2022/06/29 12:08:47;;;;;;;6.80;2.50;;;27.20;92.70;;;;;;5157529;27;20131;-76
2022/06/29 12:11:13;;;;;;;4.72;2.65;;;27.20;93.00;;;;;;5157322;27;20042;-77
2022/06/29 12:13:39;;;;;;;6.97;2.10;;;27.20;93.10;;;;;;5157280;27;20034;-77
2022/06/29 12:16:05;;;;;;;4.50;2.50;;;27.10;93.70;;;;;;5157102;27;20065;-77
2022/06/29 12:18:31;;;;;;;5.77;2.40;;;27.10;93.20;;;;;;5157364;27;20466;-77
2022/06/29 12:20:57;;;;;;;5.18;2.47;;;27.10;93.40;;;;;;5157513;27;20039;-76
2022/06/29 12:23:23;;;;;;;4.82;2.50;;;27.20;93.70;;;;;;5157088;27;20095;-77
2022/06/29 12:25:49;;;;;;;4.90;2.33;;;27.30;93.60;;;;;;5156960;27;20062;-77
2022/06/29 12:28:15;;;;;;;3.85;2.30;;;27.40;93.10;;;;;;5157264;27;20058;-76
2022/06/29 12:30:41;;;;;;;4.82;2.35;;;27.40;93.20;;;;;;5156686;27;20514;-75
2022/06/29 12:33:09;;;;;;;4.20;2.50;;;27.40;92.80;;;;;;5156947;27;20081;-77
2022/06/29 12:35:38;;;;;;;4.22;2.40;;;27.40;92.70;;;;;;5156947;27;20058;-77
2022/06/29 12:38:04;;;;;;;6.05;2.40;;;27.30;93.00;;;;;;5156774;27;20038;-76
2022/06/29 12:40:30;;;;;;;5.13;2.40;;;27.30;92.70;;;;;;5156402;27;20043;-77
2022/06/29 12:42:55;;;;;;;2.95;2.40;;;27.30;92.90;;;;;;5156744;27;20042;-75
2022/06/29 12:45:23;;;;;;;3.93;2.30;;;27.40;93.50;;;;;;5156220;27;20046;-76
2022/06/29 12:47:50;;;;;;;6.65;2.40;;;27.40;93.30;;;;;;5155641;27;20068;-76
2022/06/29 12:50:16;;;;;;;5.43;2.08;;;27.30;93.30;;;;;;5156514;27;20042;-76
2022/06/29 12:52:46;;;;;;;7.28;2.35;;;27.40;93.50;;;;;;5145955;27;20049;-80
2022/06/29 12:55:15;;;;;;;3.63;1.95;;;27.60;93.90;;;;;;5156400;27;20042;-78
2022/06/29 12:57:42;;;;;;;5.57;2.70;;;27.90;94.10;;;;;;5156089;27;20505;-79
2022/06/29 13:00:09;;;;;;;3.42;2.55;;;28.00;93.00;;;;;;5145491;27;20086;-81
2022/06/29 13:02:35;;;;;;;4.35;2.50;;;28.20;92.90;;;;;;5135644;27;20050;-79
2022/06/29 13:05:00;;;;;;;4.68;2.50;;;28.10;92.10;;;;;;5135635;27;20050;-78
2022/06/29 13:07:26;;;;;;;5.35;2.80;;;28.20;93.20;;;;;;5143077;27;20125;-79
2022/06/29 13:09:53;;;;;;;3.72;2.70;;;28.20;92.30;;;;;;5148763;27;20107;-80